sensor_id;sensor_type;location;lat;lon;timestamp;temperature;humidity
31819;DHT22;18384;48.860;9.188;2023-07-29T00:00:57;18.70;99.90
31819;DHT22;18384;48.860;9.188;2023-07-29T00:03:23;18.70;99.90
31819;DHT22;18384;48.860;9.188;2023-07-29T00:05:49;18.70;99.90
31819;DHT22;18384;48.860;9.188;2023-07-29T00:08:15;18.70;99.90
31819;DHT22;18384;48.860;9.188;2023-07-29T00:10:41;18.70;99.90
31819;DHT22;18384;48.860;9.188;2023-07-29T00:13:08;18.70;99.90
31819;DHT22;18384;48.860;9.188;2023-07-29T00:15:34;18.80;99.90
31819;DHT22;18384;48.860;9.188;2023-07-29T00:18:00;18.80;99.90
31819;DHT22;18384;48.860;9.188;2023-07-29T00:20:26;18.80;99.90
31819;DHT22;18384;48.860;9.188;2023-07-29T00:22:52;18.80;99.90
31819;DHT22;18384;48.860;9.188;2023-07-29T00:25:20;18.80;99.90
31819;DHT22;18384;48.860;9.188;2023-07-29T00:27:47;18.80;99.90
31819;DHT22;18384;48.860;9.188;2023-07-29T00:30:13;18.80;99.90
31819;DHT22;18384;48.860;9.188;2023-07-29T00:32:40;19.50;99.90
31819;DHT22;18384;48.860;9.188;2023-07-29T00:35:06;18.90;99.90
31819;DHT22;18384;48.860;9.188;2023-07-29T00:37:32;18.80;99.90
31819;DHT22;18384;48.860;9.188;2023-07-29T00:39:58;18.80;99.90
31819;DHT22;18384;48.860;9.188;2023-07-29T00:42:25;18.90;99.90
31819;DHT22;18384;48.860;9.188;2023-07-29T00:44:51;18.80;99.90
31819;DHT22;18384;48.860;9.188;2023-07-29T00:47:18;18.90;99.90
31819;DHT22;18384;48.860;9.188;2023-07-29T00:49:45;18.90;99.90
31819;DHT22;18384;48.860;9.188;2023-07-29T00:52:12;18.90;99.90
31819;DHT22;18384;48.860;9.188;2023-07-29T00:54:42;18.90;99.90
31819;DHT22;18384;48.860;9.188;2023-07-29T00:57:09;18.90;99.90
31819;DHT22;18384;48.860;9.188;2023-07-29T00:59:36;18.90;99.90
31819;DHT22;18384;48.860;9.188;2023-07-29T01:02:03;18.90;99.90
31819;DHT22;18384;48.860;9.188;2023-07-29T01:04:29;19.00;99.90
31819;DHT22;18384;48.860;9.188;2023-07-29T01:07:23;19.00;99.90
31819;DHT22;18384;48.860;9.188;2023-07-29T01:13:53;19.00;99.90
31819;DHT22;18384;48.860;9.188;2023-07-29T01:19:04;19.00;99.90
31819;DHT22;18384;48.860;9.188;2023-07-29T01:21:33;18.90;99.90
31819;DHT22;18384;48.860;9.188;2023-07-29T01:24:01;18.90;99.90
31819;DHT22;18384;48.860;9.188;2023-07-29T01:26:27;18.90;99.90
31819;DHT22;18384;48.860;9.188;2023-07-29T01:28:56;18.90;99.90
31819;DHT22;18384;48.860;9.188;2023-07-29T01:31:31;18.90;99.90
31819;DHT22;18384;48.860;9.188;2023-07-29T01:34:09;18.90;99.90
31819;DHT22;18384;48.860;9.188;2023-07-29T01:36:40;18.90;99.90
31819;DHT22;18384;48.860;9.188;2023-07-29T01:39:08;17.60;99.90
31819;DHT22;18384;48.860;9.188;2023-07-29T01:41:37;18.90;99.90
31819;DHT22;18384;48.860;9.188;2023-07-29T01:44:04;18.80;99.90
31819;DHT22;18384;48.860;9.188;2023-07-29T01:46:33;18.90;99.90
31819;DHT22;18384;48.860;9.188;2023-07-29T01:48:59;18.90;99.90
31819;DHT22;18384;48.860;9.188;2023-07-29T01:51:25;18.80;99.90
31819;DHT22;18384;48.860;9.188;2023-07-29T01:53:51;18.80;99.90
31819;DHT22;18384;48.860;9.188;2023-07-29T01:56:18;18.80;99.90
31819;DHT22;18384;48.860;9.188;2023-07-29T01:58:44;18.90;99.90
31819;DHT22;18384;48.860;9.188;2023-07-29T02:01:10;18.80;99.90
31819;DHT22;18384;48.860;9.188;2023-07-29T02:03:36;18.90;99.90
31819;DHT22;18384;48.860;9.188;2023-07-29T02:06:02;18.90;99.90
31819;DHT22;18384;48.860;9.188;2023-07-29T02:08:28;18.90;99.90
31819;DHT22;18384;48.860;9.188;2023-07-29T02:10:54;18.90;99.90
31819;DHT22;18384;48.860;9.188;2023-07-29T02:13:20;18.90;99.90
31819;DHT22;18384;48.860;9.188;2023-07-29T02:15:46;18.90;99.90
31819;DHT22;18384;48.860;9.188;2023-07-29T02:18:13;18.90;99.90
31819;DHT22;18384;48.860;9.188;2023-07-29T02:20:39;18.90;99.90
31819;DHT22;18384;48.860;9.188;2023-07-29T02:23:05;18.90;99.90
31819;DHT22;18384;48.860;9.188;2023-07-29T02:25:31;18.90;99.90
31819;DHT22;18384;48.860;9.188;2023-07-29T02:28:00;18.90;99.90
31819;DHT22;18384;48.860;9.188;2023-07-29T02:30:26;18.90;99.90
31819;DHT22;18384;48.860;9.188;2023-07-29T02:32:52;18.90;99.90
31819;DHT22;18384;48.860;9.188;2023-07-29T02:35:18;18.90;99.90
31819;DHT22;18384;48.860;9.188;2023-07-29T02:37:44;18.90;99.90
31819;DHT22;18384;48.860;9.188;2023-07-29T02:40:11;18.90;99.90
31819;DHT22;18384;48.860;9.188;2023-07-29T02:42:37;18.80;99.90
31819;DHT22;18384;48.860;9.188;2023-07-29T02:45:04;18.90;99.90
31819;DHT22;18384;48.860;9.188;2023-07-29T02:47:30;18.80;99.90
31819;DHT22;18384;48.860;9.188;2023-07-29T02:49:57;18.80;99.90
31819;DHT22;18384;48.860;9.188;2023-07-29T02:52:23;18.80;99.90
31819;DHT22;18384;48.860;9.188;2023-07-29T02:54:49;18.80;99.90
31819;DHT22;18384;48.860;9.188;2023-07-29T02:57:15;18.80;99.90
31819;DHT22;18384;48.860;9.188;2023-07-29T02:59:42;18.70;99.90
31819;DHT22;18384;48.860;9.188;2023-07-29T03:02:09;18.80;99.90
31819;DHT22;18384;48.860;9.188;2023-07-29T03:04:35;18.70;99.90
31819;DHT22;18384;48.860;9.188;2023-07-29T03:07:01;18.70;99.90
31819;DHT22;18384;48.860;9.188;2023-07-29T03:09:27;18.70;99.90
31819;DHT22;18384;48.860;9.188;2023-07-29T03:11:53;18.70;99.90
31819;DHT22;18384;48.860;9.188;2023-07-29T03:14:21;18.70;99.90
31819;DHT22;18384;48.860;9.188;2023-07-29T03:16:47;18.70;99.90
31819;DHT22;18384;48.860;9.188;2023-07-29T03:19:13;18.70;99.90
31819;DHT22;18384;48.860;9.188;2023-07-29T03:21:39;18.60;99.90
31819;DHT22;18384;48.860;9.188;2023-07-29T03:24:05;18.60;99.90
31819;DHT22;18384;48.860;9.188;2023-07-29T03:26:32;18.60;99.90
31819;DHT22;18384;48.860;9.188;2023-07-29T03:28:58;18.60;99.90
31819;DHT22;18384;48.860;9.188;2023-07-29T03:31:24;18.50;99.90
31819;DHT22;18384;48.860;9.188;2023-07-29T03:33:50;18.50;99.90
31819;DHT22;18384;48.860;9.188;2023-07-29T03:36:16;18.60;99.90
31819;DHT22;18384;48.860;9.188;2023-07-29T03:38:42;18.60;99.90
31819;DHT22;18384;48.860;9.188;2023-07-29T03:41:10;18.60;99.90
31819;DHT22;18384;48.860;9.188;2023-07-29T03:43:36;18.70;99.90
31819;DHT22;18384;48.860;9.188;2023-07-29T03:46:02;18.70;99.90
31819;DHT22;18384;48.860;9.188;2023-07-29T03:48:28;18.70;99.90
31819;DHT22;18384;48.860;9.188;2023-07-29T03:50:56;18.70;99.90
31819;DHT22;18384;48.860;9.188;2023-07-29T03:53:22;18.70;99.90
31819;DHT22;18384;48.860;9.188;2023-07-29T03:55:48;18.80;99.90
31819;DHT22;18384;48.860;9.188;2023-07-29T03:58:15;18.70;99.90
31819;DHT22;18384;48.860;9.188;2023-07-29T04:00:41;18.80;99.90
31819;DHT22;18384;48.860;9.188;2023-07-29T04:03:08;18.80;99.90
31819;DHT22;18384;48.860;9.188;2023-07-29T04:05:34;18.80;99.90
31819;DHT22;18384;48.860;9.188;2023-07-29T04:08:01;18.80;99.90
31819;DHT22;18384;48.860;9.188;2023-07-29T04:10:27;18.80;99.90
31819;DHT22;18384;48.860;9.188;2023-07-29T04:12:53;18.80;99.90
31819;DHT22;18384;48.860;9.188;2023-07-29T04:15:19;18.80;99.90
31819;DHT22;18384;48.860;9.188;2023-07-29T04:17:45;18.80;99.90
31819;DHT22;18384;48.860;9.188;2023-07-29T04:20:11;18.80;99.90
31819;DHT22;18384;48.860;9.188;2023-07-29T04:22:37;18.80;99.90
31819;DHT22;18384;48.860;9.188;2023-07-29T04:25:04;18.80;99.90
31819;DHT22;18384;48.860;9.188;2023-07-29T04:27:31;18.80;99.90
31819;DHT22;18384;48.860;9.188;2023-07-29T04:29:57;18.80;99.90
31819;DHT22;18384;48.860;9.188;2023-07-29T04:32:23;18.80;99.90
31819;DHT22;18384;48.860;9.188;2023-07-29T04:34:49;18.80;99.90
31819;DHT22;18384;48.860;9.188;2023-07-29T04:37:15;18.80;99.90
31819;DHT22;18384;48.860;9.188;2023-07-29T04:39:42;18.80;99.90
31819;DHT22;18384;48.860;9.188;2023-07-29T04:42:08;18.80;99.90
31819;DHT22;18384;48.860;9.188;2023-07-29T04:44:34;18.80;99.90
31819;DHT22;18384;48.860;9.188;2023-07-29T04:47:00;18.80;99.90
31819;DHT22;18384;48.860;9.188;2023-07-29T04:49:26;18.80;99.90
31819;DHT22;18384;48.860;9.188;2023-07-29T04:51:52;18.80;99.90
31819;DHT22;18384;48.860;9.188;2023-07-29T04:54:18;18.80;99.90
31819;DHT22;18384;48.860;9.188;2023-07-29T04:56:46;18.80;99.90
31819;DHT22;18384;48.860;9.188;2023-07-29T04:59:12;18.80;99.90
31819;DHT22;18384;48.860;9.188;2023-07-29T05:01:39;18.70;99.90
31819;DHT22;18384;48.860;9.188;2023-07-29T05:04:04;18.80;99.90
31819;DHT22;18384;48.860;9.188;2023-07-29T05:06:31;18.80;99.90
31819;DHT22;18384;48.860;9.188;2023-07-29T05:08:57;18.80;99.90
31819;DHT22;18384;48.860;9.188;2023-07-29T05:11:23;18.90;99.90
31819;DHT22;18384;48.860;9.188;2023-07-29T05:13:51;18.90;99.90
31819;DHT22;18384;48.860;9.188;2023-07-29T05:16:16;18.90;99.90
31819;DHT22;18384;48.860;9.188;2023-07-29T05:18:43;19.00;99.90
31819;DHT22;18384;48.860;9.188;2023-07-29T05:21:09;19.10;99.90
31819;DHT22;18384;48.860;9.188;2023-07-29T05:23:36;19.10;99.90
31819;DHT22;18384;48.860;9.188;2023-07-29T05:26:03;19.20;99.90
31819;DHT22;18384;48.860;9.188;2023-07-29T05:28:29;19.20;99.90
31819;DHT22;18384;48.860;9.188;2023-07-29T05:30:55;19.20;99.90
31819;DHT22;18384;48.860;9.188;2023-07-29T05:33:21;19.30;99.90
31819;DHT22;18384;48.860;9.188;2023-07-29T05:35:47;19.30;99.90
31819;DHT22;18384;48.860;9.188;2023-07-29T05:38:13;19.40;99.90
31819;DHT22;18384;48.860;9.188;2023-07-29T05:40:39;19.50;99.90
31819;DHT22;18384;48.860;9.188;2023-07-29T05:43:06;19.50;99.90
31819;DHT22;18384;48.860;9.188;2023-07-29T05:45:32;19.50;99.90
31819;DHT22;18384;48.860;9.188;2023-07-29T05:47:58;19.60;99.90
31819;DHT22;18384;48.860;9.188;2023-07-29T05:50:24;19.60;99.90
31819;DHT22;18384;48.860;9.188;2023-07-29T05:52:50;19.60;99.90
31819;DHT22;18384;48.860;9.188;2023-07-29T05:55:16;19.50;99.90
31819;DHT22;18384;48.860;9.188;2023-07-29T05:57:42;19.50;99.90
31819;DHT22;18384;48.860;9.188;2023-07-29T06:00:09;19.60;99.90
31819;DHT22;18384;48.860;9.188;2023-07-29T06:02:35;19.70;99.90
31819;DHT22;18384;48.860;9.188;2023-07-29T06:05:02;19.70;99.90
31819;DHT22;18384;48.860;9.188;2023-07-29T06:07:29;19.90;99.90
31819;DHT22;18384;48.860;9.188;2023-07-29T06:09:57;20.00;99.90
31819;DHT22;18384;48.860;9.188;2023-07-29T06:12:23;20.10;99.90
31819;DHT22;18384;48.860;9.188;2023-07-29T06:14:49;20.30;99.90
31819;DHT22;18384;48.860;9.188;2023-07-29T06:17:15;20.40;99.90
31819;DHT22;18384;48.860;9.188;2023-07-29T06:19:42;20.50;99.90
31819;DHT22;18384;48.860;9.188;2023-07-29T06:22:09;20.70;99.90
31819;DHT22;18384;48.860;9.188;2023-07-29T06:24:35;20.70;99.90
31819;DHT22;18384;48.860;9.188;2023-07-29T06:27:01;20.80;99.90
31819;DHT22;18384;48.860;9.188;2023-07-29T06:29:27;20.80;99.90
31819;DHT22;18384;48.860;9.188;2023-07-29T06:31:53;20.90;99.90
31819;DHT22;18384;48.860;9.188;2023-07-29T06:34:20;20.80;99.90
31819;DHT22;18384;48.860;9.188;2023-07-29T06:36:46;20.80;99.90
31819;DHT22;18384;48.860;9.188;2023-07-29T06:39:12;20.80;99.90
31819;DHT22;18384;48.860;9.188;2023-07-29T06:41:38;20.70;99.90
31819;DHT22;18384;48.860;9.188;2023-07-29T06:44:04;20.70;99.90
31819;DHT22;18384;48.860;9.188;2023-07-29T06:46:31;20.60;99.90
31819;DHT22;18384;48.860;9.188;2023-07-29T06:48:57;20.50;99.90
31819;DHT22;18384;48.860;9.188;2023-07-29T06:51:23;20.50;99.90
31819;DHT22;18384;48.860;9.188;2023-07-29T06:53:49;20.40;99.90
31819;DHT22;18384;48.860;9.188;2023-07-29T06:56:15;20.40;99.90
31819;DHT22;18384;48.860;9.188;2023-07-29T06:58:41;20.40;99.90
31819;DHT22;18384;48.860;9.188;2023-07-29T07:01:07;20.40;99.90
31819;DHT22;18384;48.860;9.188;2023-07-29T07:03:34;20.40;99.90
31819;DHT22;18384;48.860;9.188;2023-07-29T07:06:00;20.40;99.90
31819;DHT22;18384;48.860;9.188;2023-07-29T07:08:26;20.40;99.90
31819;DHT22;18384;48.860;9.188;2023-07-29T07:10:52;20.40;99.90
31819;DHT22;18384;48.860;9.188;2023-07-29T07:13:18;20.40;99.90
31819;DHT22;18384;48.860;9.188;2023-07-29T07:15:44;20.40;99.90
31819;DHT22;18384;48.860;9.188;2023-07-29T07:18:10;20.40;99.90
31819;DHT22;18384;48.860;9.188;2023-07-29T07:20:36;20.30;99.90
31819;DHT22;18384;48.860;9.188;2023-07-29T07:23:02;20.30;99.90
31819;DHT22;18384;48.860;9.188;2023-07-29T07:25:31;20.40;99.90
31819;DHT22;18384;48.860;9.188;2023-07-29T07:27:57;20.30;99.90
31819;DHT22;18384;48.860;9.188;2023-07-29T07:30:23;20.30;99.90
31819;DHT22;18384;48.860;9.188;2023-07-29T07:32:49;20.30;99.90
31819;DHT22;18384;48.860;9.188;2023-07-29T07:35:16;20.30;99.90
31819;DHT22;18384;48.860;9.188;2023-07-29T07:37:42;20.30;99.90
31819;DHT22;18384;48.860;9.188;2023-07-29T07:40:09;20.40;99.90
31819;DHT22;18384;48.860;9.188;2023-07-29T07:42:35;20.40;99.90
31819;DHT22;18384;48.860;9.188;2023-07-29T07:45:01;20.40;99.90
31819;DHT22;18384;48.860;9.188;2023-07-29T07:47:27;20.40;99.90
31819;DHT22;18384;48.860;9.188;2023-07-29T07:49:53;20.40;99.90
31819;DHT22;18384;48.860;9.188;2023-07-29T07:52:19;20.40;99.90
31819;DHT22;18384;48.860;9.188;2023-07-29T07:54:45;20.50;99.90
31819;DHT22;18384;48.860;9.188;2023-07-29T07:57:16;20.50;99.90
31819;DHT22;18384;48.860;9.188;2023-07-29T07:59:43;20.60;99.90
31819;DHT22;18384;48.860;9.188;2023-07-29T08:02:09;20.60;99.90
31819;DHT22;18384;48.860;9.188;2023-07-29T08:04:35;20.70;99.90
31819;DHT22;18384;48.860;9.188;2023-07-29T08:07:01;20.70;99.90
31819;DHT22;18384;48.860;9.188;2023-07-29T08:09:27;20.80;99.90
31819;DHT22;18384;48.860;9.188;2023-07-29T08:11:53;20.90;99.90
31819;DHT22;18384;48.860;9.188;2023-07-29T08:14:19;20.90;99.90
31819;DHT22;18384;48.860;9.188;2023-07-29T08:16:45;20.90;99.90
31819;DHT22;18384;48.860;9.188;2023-07-29T08:19:11;21.00;99.90
31819;DHT22;18384;48.860;9.188;2023-07-29T08:21:37;21.00;99.90
31819;DHT22;18384;48.860;9.188;2023-07-29T08:24:03;21.30;99.90
31819;DHT22;18384;48.860;9.188;2023-07-29T08:26:29;21.50;99.90
31819;DHT22;18384;48.860;9.188;2023-07-29T08:28:55;21.50;99.90
31819;DHT22;18384;48.860;9.188;2023-07-29T08:31:22;21.50;99.90
31819;DHT22;18384;48.860;9.188;2023-07-29T08:33:48;21.50;99.90
31819;DHT22;18384;48.860;9.188;2023-07-29T08:36:14;21.50;99.90
31819;DHT22;18384;48.860;9.188;2023-07-29T08:38:40;21.50;99.90
31819;DHT22;18384;48.860;9.188;2023-07-29T08:41:16;21.50;99.90
31819;DHT22;18384;48.860;9.188;2023-07-29T08:43:54;21.50;99.90
31819;DHT22;18384;48.860;9.188;2023-07-29T08:46:26;21.60;99.90
31819;DHT22;18384;48.860;9.188;2023-07-29T08:48:53;21.70;99.90
31819;DHT22;18384;48.860;9.188;2023-07-29T08:51:19;21.80;99.90
31819;DHT22;18384;48.860;9.188;2023-07-29T08:53:47;22.10;99.90
31819;DHT22;18384;48.860;9.188;2023-07-29T08:56:14;22.30;99.90
31819;DHT22;18384;48.860;9.188;2023-07-29T08:58:41;22.60;99.90
31819;DHT22;18384;48.860;9.188;2023-07-29T09:01:07;22.90;99.90
31819;DHT22;18384;48.860;9.188;2023-07-29T09:03:33;23.00;99.90
31819;DHT22;18384;48.860;9.188;2023-07-29T09:06:01;23.10;99.90
31819;DHT22;18384;48.860;9.188;2023-07-29T09:08:28;23.20;99.90
31819;DHT22;18384;48.860;9.188;2023-07-29T09:10:55;23.20;99.90
31819;DHT22;18384;48.860;9.188;2023-07-29T09:13:21;23.20;99.90
31819;DHT22;18384;48.860;9.188;2023-07-29T09:15:48;23.20;99.90
31819;DHT22;18384;48.860;9.188;2023-07-29T09:18:19;23.00;99.90
31819;DHT22;18384;48.860;9.188;2023-07-29T09:20:49;23.20;99.90
31819;DHT22;18384;48.860;9.188;2023-07-29T09:23:16;23.30;99.90
31819;DHT22;18384;48.860;9.188;2023-07-29T09:25:42;23.30;99.90
31819;DHT22;18384;48.860;9.188;2023-07-29T09:28:13;23.50;99.90
31819;DHT22;18384;48.860;9.188;2023-07-29T09:30:42;23.70;99.90
31819;DHT22;18384;48.860;9.188;2023-07-29T09:33:10;23.80;99.90
31819;DHT22;18384;48.860;9.188;2023-07-29T09:35:36;23.90;99.90
31819;DHT22;18384;48.860;9.188;2023-07-29T09:38:04;24.10;99.90
31819;DHT22;18384;48.860;9.188;2023-07-29T09:40:39;24.20;99.90
31819;DHT22;18384;48.860;9.188;2023-07-29T09:43:07;24.20;99.90
31819;DHT22;18384;48.860;9.188;2023-07-29T09:45:36;24.20;99.90
31819;DHT22;18384;48.860;9.188;2023-07-29T09:48:04;24.10;99.90
31819;DHT22;18384;48.860;9.188;2023-07-29T09:50:35;24.00;99.90
31819;DHT22;18384;48.860;9.188;2023-07-29T09:53:03;23.90;99.90
31819;DHT22;18384;48.860;9.188;2023-07-29T09:55:33;23.60;99.90
31819;DHT22;18384;48.860;9.188;2023-07-29T09:58:01;23.30;99.90
31819;DHT22;18384;48.860;9.188;2023-07-29T10:00:30;23.10;99.90
31819;DHT22;18384;48.860;9.188;2023-07-29T10:02:58;23.00;99.90
31819;DHT22;18384;48.860;9.188;2023-07-29T10:05:28;23.10;99.90
31819;DHT22;18384;48.860;9.188;2023-07-29T10:07:55;22.90;99.90
31819;DHT22;18384;48.860;9.188;2023-07-29T10:10:22;22.90;99.90
31819;DHT22;18384;48.860;9.188;2023-07-29T10:12:50;22.80;99.90
31819;DHT22;18384;48.860;9.188;2023-07-29T10:15:17;22.50;99.90
31819;DHT22;18384;48.860;9.188;2023-07-29T10:17:43;22.40;99.90
31819;DHT22;18384;48.860;9.188;2023-07-29T10:20:11;22.40;99.90
31819;DHT22;18384;48.860;9.188;2023-07-29T10:22:42;22.50;99.90
31819;DHT22;18384;48.860;9.188;2023-07-29T10:25:19;22.60;99.90
31819;DHT22;18384;48.860;9.188;2023-07-29T10:28:03;22.80;99.90
31819;DHT22;18384;48.860;9.188;2023-07-29T10:30:30;22.70;99.90
31819;DHT22;18384;48.860;9.188;2023-07-29T10:33:03;22.60;99.90
31819;DHT22;18384;48.860;9.188;2023-07-29T10:35:32;22.50;99.90
31819;DHT22;18384;48.860;9.188;2023-07-29T10:38:00;22.50;99.90
31819;DHT22;18384;48.860;9.188;2023-07-29T10:40:44;22.50;99.90
31819;DHT22;18384;48.860;9.188;2023-07-29T10:43:20;22.50;99.90
31819;DHT22;18384;48.860;9.188;2023-07-29T10:45:56;22.60;99.90
31819;DHT22;18384;48.860;9.188;2023-07-29T10:50:18;22.70;99.90
31819;DHT22;18384;48.860;9.188;2023-07-29T10:52:49;22.80;99.90
31819;DHT22;18384;48.860;9.188;2023-07-29T10:55:51;23.00;99.90
31819;DHT22;18384;48.860;9.188;2023-07-29T10:58:17;23.10;99.90
31819;DHT22;18384;48.860;9.188;2023-07-29T11:00:44;23.10;99.80
31819;DHT22;18384;48.860;9.188;2023-07-29T11:03:13;23.30;99.80
31819;DHT22;18384;48.860;9.188;2023-07-29T11:05:45;23.30;99.20
31819;DHT22;18384;48.860;9.188;2023-07-29T11:08:33;23.30;99.40
31819;DHT22;18384;48.860;9.188;2023-07-29T11:11:08;23.30;98.60
31819;DHT22;18384;48.860;9.188;2023-07-29T11:13:38;23.40;99.90
31819;DHT22;18384;48.860;9.188;2023-07-29T11:16:05;23.50;99.90
31819;DHT22;18384;48.860;9.188;2023-07-29T11:18:33;23.60;99.90
31819;DHT22;18384;48.860;9.188;2023-07-29T11:21:01;23.70;99.70
31819;DHT22;18384;48.860;9.188;2023-07-29T11:23:38;23.90;99.60
31819;DHT22;18384;48.860;9.188;2023-07-29T11:26:04;24.00;98.20
31819;DHT22;18384;48.860;9.188;2023-07-29T11:28:38;24.00;98.80
31819;DHT22;18384;48.860;9.188;2023-07-29T11:31:04;24.00;97.60
31819;DHT22;18384;48.860;9.188;2023-07-29T11:33:31;24.10;98.10
31819;DHT22;18384;48.860;9.188;2023-07-29T11:35:58;24.10;97.30
31819;DHT22;18384;48.860;9.188;2023-07-29T11:38:24;24.10;98.00
31819;DHT22;18384;48.860;9.188;2023-07-29T11:40:59;24.20;97.50
31819;DHT22;18384;48.860;9.188;2023-07-29T11:43:26;24.20;97.10
31819;DHT22;18384;48.860;9.188;2023-07-29T11:45:52;24.40;97.10
31819;DHT22;18384;48.860;9.188;2023-07-29T11:48:25;24.50;97.00
31819;DHT22;18384;48.860;9.188;2023-07-29T11:50:53;24.60;95.90
31819;DHT22;18384;48.860;9.188;2023-07-29T11:53:20;24.80;95.80
31819;DHT22;18384;48.860;9.188;2023-07-29T11:55:49;24.80;96.00
31819;DHT22;18384;48.860;9.188;2023-07-29T11:58:17;24.90;96.10
31819;DHT22;18384;48.860;9.188;2023-07-29T12:00:43;24.90;95.20
31819;DHT22;18384;48.860;9.188;2023-07-29T12:03:09;24.90;95.60
31819;DHT22;18384;48.860;9.188;2023-07-29T12:05:36;24.80;96.40
31819;DHT22;18384;48.860;9.188;2023-07-29T12:08:02;24.80;95.20
31819;DHT22;18384;48.860;9.188;2023-07-29T12:10:28;24.90;95.20
31819;DHT22;18384;48.860;9.188;2023-07-29T12:12:54;24.90;95.50
31819;DHT22;18384;48.860;9.188;2023-07-29T12:15:25;24.90;95.40
31819;DHT22;18384;48.860;9.188;2023-07-29T12:17:53;25.10;95.80
31819;DHT22;18384;48.860;9.188;2023-07-29T12:20:21;25.20;95.20
31819;DHT22;18384;48.860;9.188;2023-07-29T12:22:57;25.30;95.00
31819;DHT22;18384;48.860;9.188;2023-07-29T12:25:24;25.30;95.20
31819;DHT22;18384;48.860;9.188;2023-07-29T12:27:51;25.30;96.10
31819;DHT22;18384;48.860;9.188;2023-07-29T12:30:20;25.40;94.80
31819;DHT22;18384;48.860;9.188;2023-07-29T12:32:46;25.30;94.10
31819;DHT22;18384;48.860;9.188;2023-07-29T12:35:13;25.30;93.20
31819;DHT22;18384;48.860;9.188;2023-07-29T12:37:39;25.30;93.70
31819;DHT22;18384;48.860;9.188;2023-07-29T12:40:20;25.20;93.00
31819;DHT22;18384;48.860;9.188;2023-07-29T12:42:50;25.10;91.80
31819;DHT22;18384;48.860;9.188;2023-07-29T12:45:17;25.10;92.00
31819;DHT22;18384;48.860;9.188;2023-07-29T12:47:43;25.10;91.30
31819;DHT22;18384;48.860;9.188;2023-07-29T12:50:09;25.20;91.10
31819;DHT22;18384;48.860;9.188;2023-07-29T12:52:35;25.30;91.50
31819;DHT22;18384;48.860;9.188;2023-07-29T12:55:01;25.50;90.80
31819;DHT22;18384;48.860;9.188;2023-07-29T12:57:27;25.50;90.00
31819;DHT22;18384;48.860;9.188;2023-07-29T12:59:53;25.50;91.00
31819;DHT22;18384;48.860;9.188;2023-07-29T13:02:19;25.70;90.80
31819;DHT22;18384;48.860;9.188;2023-07-29T13:04:45;25.80;91.00
31819;DHT22;18384;48.860;9.188;2023-07-29T13:07:11;25.80;90.90
31819;DHT22;18384;48.860;9.188;2023-07-29T13:09:37;25.80;90.00
31819;DHT22;18384;48.860;9.188;2023-07-29T13:12:03;25.90;89.90
31819;DHT22;18384;48.860;9.188;2023-07-29T13:14:29;25.80;91.00
31819;DHT22;18384;48.860;9.188;2023-07-29T13:16:55;25.80;90.10
31819;DHT22;18384;48.860;9.188;2023-07-29T13:19:21;25.80;90.10
31819;DHT22;18384;48.860;9.188;2023-07-29T13:21:47;25.70;90.10
31819;DHT22;18384;48.860;9.188;2023-07-29T13:24:13;25.80;90.70
31819;DHT22;18384;48.860;9.188;2023-07-29T13:26:39;25.80;90.90
31819;DHT22;18384;48.860;9.188;2023-07-29T13:29:05;26.10;91.50
31819;DHT22;18384;48.860;9.188;2023-07-29T13:31:31;26.10;91.20
31819;DHT22;18384;48.860;9.188;2023-07-29T13:33:57;26.20;89.60
31819;DHT22;18384;48.860;9.188;2023-07-29T13:36:23;26.10;90.20
31819;DHT22;18384;48.860;9.188;2023-07-29T13:38:49;26.20;90.20
31819;DHT22;18384;48.860;9.188;2023-07-29T13:41:15;26.10;88.60
31819;DHT22;18384;48.860;9.188;2023-07-29T13:43:40;26.10;89.70
31819;DHT22;18384;48.860;9.188;2023-07-29T13:46:06;26.10;89.60
31819;DHT22;18384;48.860;9.188;2023-07-29T13:48:32;26.10;90.30
31819;DHT22;18384;48.860;9.188;2023-07-29T13:50:59;26.00;89.10
31819;DHT22;18384;48.860;9.188;2023-07-29T13:53:25;26.10;87.80
31819;DHT22;18384;48.860;9.188;2023-07-29T13:55:51;26.10;87.90
31819;DHT22;18384;48.860;9.188;2023-07-29T13:58:17;26.10;89.80
31819;DHT22;18384;48.860;9.188;2023-07-29T14:00:43;26.10;88.10
31819;DHT22;18384;48.860;9.188;2023-07-29T14:03:09;26.20;88.00
31819;DHT22;18384;48.860;9.188;2023-07-29T14:05:35;26.20;88.70
31819;DHT22;18384;48.860;9.188;2023-07-29T14:08:01;26.20;89.60
31819;DHT22;18384;48.860;9.188;2023-07-29T14:10:27;26.20;87.60
31819;DHT22;18384;48.860;9.188;2023-07-29T14:12:53;26.10;88.50
31819;DHT22;18384;48.860;9.188;2023-07-29T14:15:19;26.10;90.10
31819;DHT22;18384;48.860;9.188;2023-07-29T14:17:45;26.10;89.90
31819;DHT22;18384;48.860;9.188;2023-07-29T14:20:11;26.10;90.00
31819;DHT22;18384;48.860;9.188;2023-07-29T14:22:37;26.10;89.60
31819;DHT22;18384;48.860;9.188;2023-07-29T14:25:03;26.10;89.10
31819;DHT22;18384;48.860;9.188;2023-07-29T14:27:29;26.20;90.30
31819;DHT22;18384;48.860;9.188;2023-07-29T14:29:55;26.20;90.10
31819;DHT22;18384;48.860;9.188;2023-07-29T14:32:21;27.40;90.10
31819;DHT22;18384;48.860;9.188;2023-07-29T14:34:48;26.10;89.70
31819;DHT22;18384;48.860;9.188;2023-07-29T14:37:14;26.10;89.30
31819;DHT22;18384;48.860;9.188;2023-07-29T14:39:40;26.10;89.10
31819;DHT22;18384;48.860;9.188;2023-07-29T14:42:06;26.10;89.40
31819;DHT22;18384;48.860;9.188;2023-07-29T14:44:33;26.00;89.10
31819;DHT22;18384;48.860;9.188;2023-07-29T14:46:59;25.80;88.70
31819;DHT22;18384;48.860;9.188;2023-07-29T14:49:25;25.70;89.10
31819;DHT22;18384;48.860;9.188;2023-07-29T14:51:51;25.70;90.10
31819;DHT22;18384;48.860;9.188;2023-07-29T14:54:17;25.70;90.00
31819;DHT22;18384;48.860;9.188;2023-07-29T14:56:43;25.70;89.70
31819;DHT22;18384;48.860;9.188;2023-07-29T14:59:09;25.70;88.80
31819;DHT22;18384;48.860;9.188;2023-07-29T15:01:35;25.70;89.20
31819;DHT22;18384;48.860;9.188;2023-07-29T15:04:01;25.70;88.80
31819;DHT22;18384;48.860;9.188;2023-07-29T15:06:27;25.70;90.20
31819;DHT22;18384;48.860;9.188;2023-07-29T15:08:52;25.60;90.80
31819;DHT22;18384;48.860;9.188;2023-07-29T15:11:18;25.50;90.40
31819;DHT22;18384;48.860;9.188;2023-07-29T15:13:44;25.50;90.80
31819;DHT22;18384;48.860;9.188;2023-07-29T15:16:10;26.80;91.70
31819;DHT22;18384;48.860;9.188;2023-07-29T15:18:36;25.50;90.90
31819;DHT22;18384;48.860;9.188;2023-07-29T15:21:03;25.60;91.30
31819;DHT22;18384;48.860;9.188;2023-07-29T15:23:28;25.70;91.10
31819;DHT22;18384;48.860;9.188;2023-07-29T15:25:54;25.60;90.50
31819;DHT22;18384;48.860;9.188;2023-07-29T15:28:20;25.70;90.60
31819;DHT22;18384;48.860;9.188;2023-07-29T15:30:47;25.70;90.30
31819;DHT22;18384;48.860;9.188;2023-07-29T15:33:13;25.70;90.30
31819;DHT22;18384;48.860;9.188;2023-07-29T15:35:39;25.70;90.30
31819;DHT22;18384;48.860;9.188;2023-07-29T15:38:05;25.80;90.70